Detalii statie BONGA [00001D00]

Toti senzorii

Date Temperatura solului [C]Precipitatii [mm]Voltaj baterie [mV]Leaf Wetness [Min]HC Air temperature [C]HC Relative humidity [%]Punctul de roua [C]
medieminmaxsumaultimatimpmedieminmaxmediemediemin
2017-06-25 06:00:00 19.3 19.1 19.6 0 7080 17.96 17.02 19.09 0 0 0
2017-06-25 07:00:00 19.8 19.6 20.2 0 7342 20.9 19.31 22.83 0 0 0
2017-06-25 08:00:00 20.5 20.2 20.9 0 7332 24.74 23.4 25.77 0 0 0
2017-06-25 09:00:00 21 20.7 21.5 0 7332 26.38 25.47 27.42 0 0 0
2017-06-25 10:00:00 22 21.7 22.4 0 7332 27.91 27.47 28.41 0 0 0
2017-06-25 11:00:00 22.9 22.6 23.5 0 7332 28.92 28.17 29.59 0 0 0
2017-06-25 12:00:00 24.3 23.5 25.3 0 7332 29.96 29.34 30.58 0 0 0
2017-06-25 13:00:00 26.1 25.4 26.4 0 7332 31.01 30.28 31.62 0 0 0
2017-06-25 14:00:00 26.5 26.4 26.8 0 7332 31.27 29.69 31.87 0 0 0
2017-06-25 15:00:00 27.1 27 27.3 0 7254 31.48 31.09 31.73 0 0 0
2017-06-25 16:00:00 27.2 27.1 27.3 0 7206 31.25 30.93 31.65 0 0 0
2017-06-25 17:00:00 26.7 26.2 27 0 7314 30.95 30.68 31.21 0 0 0
2017-06-25 18:00:00 25.3 24.7 26 0 7176 29.79 28.93 30.49 0 0 0
2017-06-25 19:00:00 24.3 23.9 24.8 0 7324 27.76 26.74 28.84 0 0 0
2017-06-25 20:00:00 23.6 23.2 24 0 6962 25.13 24.02 26.47 0 0 0
2017-06-25 21:00:00 22.8 22.6 23.2 0 6942 22.6 21.49 23.85 0 0 0
2017-06-25 22:00:00 22.2 22 22.5 0 6932 21.01 20.82 21.35 0 0 0
2017-06-25 23:00:00 22 21.9 22.2 0 6922 21.38 20.9 21.84 0 0 0
2017-06-26 00:00:00 21.9 21.8 22.2 0 6922 21.31 20.86 21.66 0 0 0
2017-06-26 01:00:00 21.6 21.4 21.9 0 6914 20.03 19.59 20.66 0 0 0
2017-06-26 02:00:00 21.2 21 21.5 0 6904 19.49 19.11 19.83 0 0 0
2017-06-26 03:00:00 21 20.8 21.2 0 6914 19.13 18.84 19.48 0 0 0
2017-06-26 04:00:00 20.6 20.6 20.9 0 6904 18.54 18.27 18.9 0 0 0
2017-06-26 05:00:00 20.4 20.2 20.6 0 6922 18.21 18.05 18.41 0 0 0
2017-06-26 06:00:00 20.6 20.4 21 0 7080 19.37 18.45 20.31 0 0 0
2017-06-26 07:00:00 21.1 20.9 21.4 0 7342 21.8 20.49 23.34 0 0 0
2017-06-26 08:00:00 21.8 21.4 22.2 0 7342 24.26 22.33 25.22 0 0 0
2017-06-26 09:00:00 22.6 22.2 23.2 0 7342 26.1 24.33 27.33 0 0 0
2017-06-26 10:00:00 24 23.2 24.8 0 7332 28.48 27.59 29.68 0 0 0
2017-06-26 11:00:00 25.5 24.9 26.1 0 7332 30.12 28.95 31 0 0 0
2017-06-26 12:00:00 26.7 26 27.3 0 7332 31.01 30.31 31.69 0 0 0
2017-06-26 13:00:00 27.8 27.5 28.2 0 7324 32.03 31.4 33.18 0 0 0
2017-06-26 14:00:00 28.3 28 28.5 0 7332 32.59 32.1 33.22 0 0 0
2017-06-26 15:00:00 29.1 28.6 29.4 0 7264 33.79 33 34.22 0 0 0
2017-06-26 16:00:00 28.8 27.8 29.4 0 7196 32.63 31.22 33.93 0 0 0
2017-06-26 17:00:00 27.1 26.4 27.9 0 7324 30.67 29.3 32.33 0 0 0
2017-06-26 18:00:00 25.8 25.5 26.2 0 7324 28.47 28.02 28.95 0 0 0
2017-06-26 19:00:00 25.3 25.2 25.6 0 6972 27.54 26.64 28.03 0 0 0
2017-06-26 20:00:00 24.6 23.6 25.1 0 6942 25.27 20.12 27.41 0 0 0
2017-06-26 21:00:00 22.6 22.3 23.1 0 6942 20.01 19.62 20.19 0 0 0
2017-06-26 22:00:00 22.2 22 22.5 0 6922 19.91 19.69 20.05 0 0 0
2017-06-26 23:00:00 22 22 22.3 0 6922 19.62 19.46 19.74 0 0 0
2017-06-27 00:00:00 21.9 21.8 22.1 0 6914 19.46 19.18 19.58 0 0 0
2017-06-27 01:00:00 21.5 21.3 21.8 0 6904 18.78 18.13 19.17 0 0 0
2017-06-27 02:00:00 21 20.8 21.3 0 6914 18.03 17.58 18.36 0 0 0
2017-06-27 03:00:00 20.6 20.5 21 0 6904 17.54 17.17 17.96 0 0 0
2017-06-27 04:00:00 20.5 20.4 20.6 0 6894 17.71 17.14 18.22 0 0 0
2017-06-27 05:00:00 20.7 20.4 20.8 0 6914 18.13 17.88 18.25 13.79 2.5 0